createdAt,value
2023-06-09T00:00:56.540Z,8.40
2023-06-09T00:06:00.334Z,9.80
2023-06-09T00:11:02.128Z,8.80
2023-06-09T00:16:03.862Z,10.30
2023-06-09T00:21:05.740Z,9.50
2023-06-09T00:26:07.291Z,10.10
2023-06-09T00:31:08.850Z,8.90
2023-06-09T00:36:10.388Z,11.00
2023-06-09T00:41:11.927Z,10.80
2023-06-09T00:46:13.574Z,10.30
2023-06-09T00:51:15.703Z,9.60
2023-06-09T00:56:19.496Z,8.80
2023-06-09T01:01:21.170Z,9.90
2023-06-09T01:06:40.256Z,10.20
2023-06-09T01:12:00.491Z,12.40
2023-06-09T01:17:12.481Z,12.40
2023-06-09T01:22:29.394Z,10.60
2023-06-09T01:27:31.210Z,11.90
2023-06-09T01:32:33.961Z,10.10
2023-06-09T01:37:35.738Z,11.40
2023-06-09T01:42:38.822Z,13.30
2023-06-09T01:47:40.816Z,12.40
2023-06-09T01:53:05.464Z,13.40
2023-06-09T01:58:25.204Z,13.50
2023-06-09T02:03:31.204Z,13.20
2023-06-09T02:08:33.775Z,11.10
2023-06-09T02:13:35.764Z,12.40
2023-06-09T02:18:38.386Z,12.00
2023-06-09T02:23:40.514Z,11.50
2023-06-09T02:28:42.298Z,11.20
2023-06-09T02:33:44.188Z,11.00
2023-06-09T02:38:46.308Z,10.10
2023-06-09T02:43:47.841Z,9.50
2023-06-09T02:48:50.139Z,11.10
2023-06-09T02:53:51.796Z,14.70
2023-06-09T02:58:54.382Z,11.60
2023-06-09T03:03:55.996Z,10.40
2023-06-09T03:08:57.638Z,10.10
2023-06-09T03:13:59.211Z,8.40
2023-06-09T03:19:01.562Z,8.50
2023-06-09T03:24:04.864Z,8.20
2023-06-09T03:29:06.458Z,7.80
2023-06-09T03:34:08.329Z,8.10
2023-06-09T03:44:11.348Z,9.10
2023-06-09T03:49:12.928Z,9.20
2023-06-09T03:54:14.496Z,9.90
2023-06-09T03:59:16.257Z,10.10
2023-06-09T04:04:17.845Z,8.70
2023-06-09T04:09:19.816Z,10.20
2023-06-09T04:14:21.376Z,9.50
2023-06-09T04:19:23.468Z,10.50
2023-06-09T04:24:25.046Z,7.30
2023-06-09T04:29:27.206Z,8.80
2023-06-09T04:34:30.154Z,7.80
2023-06-09T04:39:31.685Z,9.10
2023-06-09T04:44:33.974Z,8.50
2023-06-09T04:49:36.263Z,9.10
2023-06-09T04:54:37.792Z,8.70
2023-06-09T04:59:42.977Z,9.00
2023-06-09T05:04:44.706Z,8.70
2023-06-09T05:09:46.666Z,7.70
2023-06-09T05:14:48.297Z,9.20
2023-06-09T05:19:49.826Z,8.50
2023-06-09T05:24:51.933Z,8.50
2023-06-09T05:29:53.452Z,8.30
2023-06-09T05:34:54.976Z,9.10
2023-06-09T05:39:56.768Z,7.80
2023-06-09T05:44:58.322Z,8.30
2023-06-09T05:49:59.889Z,9.60
2023-06-09T05:55:02.830Z,7.40
2023-06-09T06:00:09.884Z,7.30
2023-06-09T06:05:13.470Z,7.90
2023-06-09T06:10:15.601Z,7.70
2023-06-09T06:15:17.377Z,8.30
2023-06-09T06:20:18.902Z,6.80
2023-06-09T06:25:20.467Z,6.10
2023-06-09T06:30:28.541Z,8.50
2023-06-09T06:35:30.563Z,6.40
2023-06-09T06:40:32.345Z,6.60
2023-06-09T06:45:33.883Z,4.90
2023-06-09T06:50:35.428Z,6.20
2023-06-09T06:55:38.234Z,6.60
2023-06-09T07:00:40.589Z,5.90
2023-06-09T07:05:42.145Z,6.40
2023-06-09T07:10:43.667Z,6.30
2023-06-09T07:15:45.341Z,6.40
2023-06-09T07:20:48.817Z,4.80
2023-06-09T07:25:50.767Z,7.10
2023-06-09T07:30:53.142Z,5.40
2023-06-09T07:40:56.186Z,6.50
2023-06-09T07:45:57.993Z,6.60
2023-06-09T07:51:04.167Z,5.10
2023-06-09T07:56:05.741Z,5.00
2023-06-09T08:01:07.256Z,6.20
2023-06-09T08:06:11.691Z,5.10
2023-06-09T08:11:13.282Z,5.90
2023-06-09T08:16:14.831Z,6.60
2023-06-09T08:21:17.540Z,6.80
2023-06-09T08:26:19.362Z,6.70
2023-06-09T08:31:21.561Z,5.30
2023-06-09T08:36:24.210Z,6.90
2023-06-09T08:41:33.481Z,5.40
2023-06-09T08:46:39.461Z,5.50
2023-06-09T08:51:44.224Z,7.50
2023-06-09T08:56:48.444Z,6.40
2023-06-09T09:01:51.195Z,5.80
2023-06-09T09:06:54.589Z,5.80
2023-06-09T09:11:59.647Z,7.60
2023-06-09T09:17:08.801Z,5.60
2023-06-09T09:22:10.364Z,6.30
2023-06-09T09:27:20.014Z,5.70
2023-06-09T09:32:29.921Z,5.20
2023-06-09T09:37:32.194Z,4.90
2023-06-09T09:42:34.122Z,5.50
2023-06-09T09:47:35.706Z,4.60
2023-06-09T09:52:37.522Z,5.80
2023-06-09T09:57:40.981Z,4.80
2023-06-09T10:02:44.799Z,4.60
2023-06-09T10:07:53.016Z,6.40
2023-06-09T10:12:56.781Z,6.20
2023-06-09T10:17:59.642Z,5.60
2023-06-09T10:23:01.753Z,5.30
2023-06-09T10:28:03.736Z,5.40
2023-06-09T10:33:19.429Z,5.70
2023-06-09T10:38:26.927Z,5.90
2023-06-09T10:44:07.103Z,6.50
2023-06-09T10:49:09.372Z,5.90
2023-06-09T10:54:11.234Z,6.30
2023-06-09T11:04:50.241Z,5.50
2023-06-09T11:09:51.757Z,5.90
2023-06-09T11:14:58.960Z,6.30
2023-06-09T11:20:22.000Z,6.30
2023-06-09T11:25:27.770Z,6.40
2023-06-09T11:30:32.657Z,6.40
2023-06-09T11:35:40.906Z,5.90
2023-06-09T11:40:53.379Z,7.50
2023-06-09T11:46:02.974Z,7.20
2023-06-09T11:51:04.713Z,7.10
2023-06-09T11:56:06.304Z,7.40
2023-06-09T12:01:07.907Z,7.00
2023-06-09T12:06:09.442Z,8.20
2023-06-09T12:11:20.570Z,7.30
2023-06-09T12:16:25.117Z,7.90
2023-06-09T12:21:26.775Z,7.30
2023-06-09T12:26:38.791Z,7.40
2023-06-09T12:31:47.946Z,6.60
2023-06-09T12:36:51.058Z,6.60
2023-06-09T12:41:53.112Z,6.30
2023-06-09T12:46:58.243Z,7.60
2023-06-09T12:52:01.140Z,6.60
2023-06-09T12:57:02.711Z,6.00
2023-06-09T13:02:04.741Z,7.40
2023-06-09T13:07:06.296Z,9.00
2023-06-09T13:12:08.481Z,8.60
2023-06-09T13:22:11.691Z,8.30
2023-06-09T13:27:13.275Z,9.40
2023-06-09T13:32:14.858Z,9.50
2023-06-09T13:37:16.400Z,9.10
2023-06-09T13:42:17.918Z,9.50
2023-06-09T13:47:19.652Z,7.40
2023-06-09T13:52:21.193Z,6.80
2023-06-09T13:57:22.732Z,7.50
2023-06-09T14:02:24.693Z,6.30
2023-06-09T14:07:27.256Z,7.50
2023-06-09T14:12:28.978Z,7.70
2023-06-09T14:17:30.631Z,10.20
2023-06-09T14:22:32.277Z,8.50
2023-06-09T14:27:33.806Z,8.30
2023-06-09T14:32:38.317Z,6.60
2023-06-09T14:37:40.042Z,5.30
2023-06-09T14:42:41.577Z,6.30
2023-06-09T14:47:43.186Z,5.70
2023-06-09T14:52:44.885Z,5.10
2023-06-09T14:57:46.441Z,5.00
2023-06-09T15:02:52.008Z,5.60
2023-06-09T15:07:58.686Z,6.00
2023-06-09T15:13:01.703Z,5.80
2023-06-09T15:18:09.848Z,5.60
2023-06-09T15:23:12.757Z,6.20
2023-06-09T15:28:16.695Z,6.10
2023-06-09T15:33:20.738Z,7.30
2023-06-09T15:38:29.992Z,6.80
2023-06-09T15:43:38.206Z,7.50
2023-06-09T15:48:40.333Z,7.40
2023-06-09T15:53:41.882Z,10.90
2023-06-09T15:58:43.434Z,12.50
2023-06-09T16:03:45.089Z,8.50
2023-06-09T16:08:46.812Z,8.20
2023-06-09T16:13:48.368Z,6.80
2023-06-09T16:18:49.933Z,6.30
2023-06-09T16:23:52.149Z,5.30
2023-06-09T16:33:55.592Z,4.80
2023-06-09T16:38:57.118Z,8.50
2023-06-09T16:44:01.288Z,7.60
2023-06-09T16:49:03.413Z,8.90
2023-06-09T16:54:05.181Z,6.70
2023-06-09T16:59:06.751Z,6.10
2023-06-09T17:04:08.440Z,6.20
2023-06-09T17:09:10.249Z,5.80
2023-06-09T17:14:11.782Z,6.00
2023-06-09T17:19:13.340Z,8.80
2023-06-09T17:24:15.136Z,5.50
2023-06-09T17:29:16.944Z,5.30
2023-06-09T17:34:18.754Z,6.90
2023-06-09T17:39:20.294Z,8.20
2023-06-09T17:44:21.890Z,8.80
2023-06-09T17:49:23.532Z,6.80
2023-06-09T17:54:27.087Z,7.00
2023-06-09T17:59:28.629Z,7.10
2023-06-09T18:04:30.155Z,6.70
2023-06-09T18:09:32.990Z,7.20
2023-06-09T18:14:34.541Z,7.40
2023-06-09T18:19:37.273Z,6.10
2023-06-09T18:24:38.804Z,7.30
2023-06-09T18:29:40.496Z,7.70
2023-06-09T18:34:42.479Z,7.00
2023-06-09T18:39:44.200Z,10.30
2023-06-09T18:44:45.990Z,10.80
2023-06-09T18:49:48.320Z,11.60
2023-06-09T18:54:50.341Z,8.30
2023-06-09T18:59:52.005Z,8.90
2023-06-09T19:04:53.636Z,9.70
2023-06-09T19:09:55.839Z,8.30
2023-06-09T19:14:58.039Z,9.60
2023-06-09T19:19:59.899Z,10.50
2023-06-09T19:25:01.481Z,9.90
2023-06-09T19:30:04.680Z,9.30
2023-06-09T19:35:07.232Z,9.20
2023-06-09T19:40:10.052Z,9.50
2023-06-09T19:50:13.620Z,8.70
2023-06-09T19:55:18.159Z,9.10
2023-06-09T20:00:26.444Z,9.40
2023-06-09T20:05:28.044Z,12.10
2023-06-09T20:10:29.799Z,13.80
2023-06-09T20:15:31.459Z,13.00
2023-06-09T20:20:33.567Z,11.50
2023-06-09T20:25:35.433Z,11.10
2023-06-09T20:30:37.372Z,12.30
2023-06-09T20:35:38.883Z,9.70
2023-06-09T20:40:40.453Z,10.80
2023-06-09T20:45:43.451Z,13.60
2023-06-09T20:50:46.227Z,11.60
2023-06-09T20:55:47.799Z,11.20
2023-06-09T21:00:52.343Z,11.40
2023-06-09T21:05:54.210Z,12.50
2023-06-09T21:10:55.880Z,11.90
2023-06-09T21:15:57.787Z,12.30
2023-06-09T21:20:59.783Z,13.00
2023-06-09T21:26:01.420Z,11.10
2023-06-09T21:31:03.475Z,12.00
2023-06-09T21:36:06.632Z,14.20
2023-06-09T21:41:08.366Z,13.50
2023-06-09T21:46:09.902Z,13.70
2023-06-09T21:51:11.439Z,12.00
2023-06-09T21:56:13.680Z,12.90
2023-06-09T22:01:16.404Z,12.70
2023-06-09T22:06:18.176Z,12.50
2023-06-09T22:11:19.712Z,13.40
2023-06-09T22:16:21.901Z,13.80
2023-06-09T22:21:23.573Z,13.00
2023-06-09T22:26:25.130Z,12.50
2023-06-09T22:31:28.241Z,11.60
2023-06-09T22:36:29.942Z,10.30
2023-06-09T22:41:31.797Z,10.20
2023-06-09T22:46:33.387Z,10.70
2023-06-09T22:51:35.067Z,13.40
2023-06-09T22:56:36.797Z,12.50
2023-06-09T23:01:38.365Z,9.10
2023-06-09T23:06:41.257Z,8.50
2023-06-09T23:11:42.777Z,9.50
2023-06-09T23:16:44.599Z,8.40
2023-06-09T23:21:51.200Z,9.10
2023-06-09T23:26:52.739Z,8.40
2023-06-09T23:31:54.317Z,7.80
2023-06-09T23:36:56.523Z,7.30
2023-06-09T23:41:58.038Z,8.80
2023-06-09T23:46:59.940Z,8.20
2023-06-09T23:52:01.979Z,8.30
2023-06-09T23:57:03.674Z,7.70
